createdAt,value
2023-01-09T00:02:41.678Z,13.02
2023-01-09T00:05:44.380Z,12.20
2023-01-09T00:08:46.554Z,12.82
2023-01-09T00:11:49.225Z,12.85
2023-01-09T00:14:51.352Z,12.02
2023-01-09T00:17:53.501Z,13.00
2023-01-09T00:20:55.602Z,11.77
2023-01-09T00:23:57.805Z,12.40
2023-01-09T00:26:59.965Z,12.77
2023-01-09T00:30:02.855Z,13.23
2023-01-09T00:33:05.709Z,13.30
2023-01-09T00:36:08.124Z,13.20
2023-01-09T00:39:10.210Z,14.10
2023-01-09T00:42:14.025Z,14.43
2023-01-09T00:45:23.632Z,13.15
2023-01-09T00:48:27.467Z,14.30
2023-01-09T00:51:29.699Z,11.90
2023-01-09T00:54:31.965Z,13.60
2023-01-09T00:57:34.193Z,13.55
2023-01-09T01:00:36.292Z,13.65
2023-01-09T01:03:38.517Z,14.57
2023-01-09T01:06:59.297Z,13.93
2023-01-09T01:10:01.449Z,13.95
2023-01-09T01:13:03.644Z,13.82
2023-01-09T01:16:10.492Z,14.10
2023-01-09T01:19:13.234Z,12.63
2023-01-09T01:22:15.361Z,13.45
2023-01-09T01:25:17.673Z,13.45
2023-01-09T01:28:19.944Z,13.05
2023-01-09T01:31:22.472Z,13.60
2023-01-09T01:34:24.799Z,13.13
2023-01-09T01:37:27.890Z,13.75
2023-01-09T01:40:30.447Z,12.63
2023-01-09T01:43:51.392Z,13.43
2023-01-09T01:46:55.054Z,12.50
2023-01-09T01:49:57.772Z,12.82
2023-01-09T01:53:15.249Z,12.55
2023-01-09T01:56:19.491Z,12.60
2023-01-09T01:59:21.882Z,12.82
2023-01-09T02:02:28.216Z,11.90
2023-01-09T02:05:30.539Z,11.95
2023-01-09T02:08:32.947Z,12.40
2023-01-09T02:11:35.164Z,11.37
2023-01-09T02:14:37.305Z,12.15
2023-01-09T02:17:57.707Z,11.52
2023-01-09T02:21:20.147Z,11.32
2023-01-09T02:24:31.076Z,11.80
2023-01-09T02:27:33.201Z,10.18
2023-01-09T02:30:40.620Z,10.88
2023-01-09T02:33:51.799Z,10.75
2023-01-09T02:36:56.954Z,9.83
2023-01-09T02:39:59.158Z,10.37
2023-01-09T02:43:02.347Z,10.40
2023-01-09T02:46:04.665Z,9.82
2023-01-09T02:49:07.496Z,10.07
2023-01-09T02:52:17.399Z,10.13
2023-01-09T02:55:25.430Z,10.23
2023-01-09T02:59:05.993Z,9.85
2023-01-09T03:02:16.869Z,8.68
2023-01-09T03:05:37.479Z,9.80
2023-01-09T03:08:48.017Z,9.32
2023-01-09T03:11:52.318Z,9.38
2023-01-09T03:14:57.461Z,9.43
2023-01-09T03:18:00.874Z,9.35
2023-01-09T03:21:04.798Z,9.30
2023-01-09T03:24:07.120Z,10.57
2023-01-09T03:27:09.630Z,16.85
2023-01-09T03:30:11.981Z,29.55
2023-01-09T03:33:14.110Z,21.57
2023-01-09T03:36:16.741Z,13.90
2023-01-09T03:39:18.888Z,12.65
2023-01-09T03:42:20.983Z,12.02
2023-01-09T03:45:23.077Z,11.20
2023-01-09T03:48:25.365Z,11.40
2023-01-09T03:51:27.547Z,9.98
2023-01-09T03:54:29.851Z,9.38
2023-01-09T03:57:31.979Z,9.98
2023-01-09T04:00:34.085Z,9.33
2023-01-09T04:03:36.456Z,9.30
2023-01-09T04:06:38.621Z,9.18
2023-01-09T04:09:40.681Z,8.98
2023-01-09T04:12:43.191Z,9.32
2023-01-09T04:15:45.314Z,10.10
2023-01-09T04:18:47.438Z,8.73
2023-01-09T04:21:49.612Z,8.80
2023-01-09T04:24:51.811Z,9.00
2023-01-09T04:27:54.009Z,8.63
2023-01-09T04:30:56.159Z,8.63
2023-01-09T04:33:58.287Z,8.45
2023-01-09T04:37:00.525Z,9.13
2023-01-09T04:40:06.812Z,9.40
2023-01-09T04:43:08.987Z,9.20
2023-01-09T04:46:11.150Z,8.57
2023-01-09T04:49:13.478Z,8.85
2023-01-09T04:52:15.705Z,9.02
2023-01-09T04:55:17.837Z,9.48
2023-01-09T04:58:19.993Z,10.27
2023-01-09T05:01:22.283Z,12.17
2023-01-09T05:04:24.831Z,10.65
2023-01-09T05:07:26.916Z,9.57
2023-01-09T05:10:29.086Z,8.60
2023-01-09T05:13:31.274Z,8.60
2023-01-09T05:16:33.681Z,8.20
2023-01-09T05:19:35.828Z,9.20
2023-01-09T05:22:37.988Z,9.02
2023-01-09T05:25:40.150Z,9.32
2023-01-09T05:28:42.299Z,13.20
2023-01-09T05:31:44.724Z,10.80
2023-01-09T05:34:46.958Z,9.43
2023-01-09T05:37:49.236Z,9.20
2023-01-09T05:40:51.698Z,8.98
2023-01-09T05:43:53.826Z,8.43
2023-01-09T05:46:56.054Z,9.67
2023-01-09T05:49:58.190Z,9.82
2023-01-09T05:53:00.349Z,10.38
2023-01-09T05:56:02.599Z,9.82
2023-01-09T05:59:04.802Z,9.80
2023-01-09T06:02:07.568Z,9.27
2023-01-09T06:05:09.990Z,9.15
2023-01-09T06:08:12.267Z,9.57
2023-01-09T06:11:14.518Z,8.93
2023-01-09T06:14:17.288Z,8.80
2023-01-09T06:17:19.518Z,8.85
2023-01-09T06:20:21.876Z,8.98
2023-01-09T06:23:24.187Z,8.85
2023-01-09T06:26:26.841Z,11.30
2023-01-09T06:29:33.233Z,16.87
2023-01-09T06:32:35.572Z,19.48
2023-01-09T06:35:37.911Z,21.70
2023-01-09T06:38:40.237Z,18.38
2023-01-09T06:41:42.600Z,16.10
2023-01-09T06:44:45.680Z,16.08
2023-01-09T06:47:48.568Z,16.00
2023-01-09T06:50:52.020Z,16.88
2023-01-09T06:53:54.208Z,15.40
2023-01-09T06:56:56.737Z,14.18
2023-01-09T06:59:59.313Z,13.90
2023-01-09T07:03:03.706Z,13.18
2023-01-09T07:06:06.265Z,13.68
2023-01-09T07:09:08.487Z,14.80
2023-01-09T07:12:11.137Z,14.40
2023-01-09T07:15:13.261Z,15.75
2023-01-09T07:18:15.776Z,13.75
2023-01-09T07:21:17.955Z,12.13
2023-01-09T07:24:20.247Z,12.13
2023-01-09T07:27:22.682Z,12.35
2023-01-09T07:30:25.033Z,14.57
2023-01-09T07:33:27.291Z,15.18
2023-01-09T07:36:29.542Z,14.70
2023-01-09T07:39:31.795Z,16.27
2023-01-09T07:42:34.055Z,14.80
2023-01-09T07:45:36.244Z,14.30
2023-01-09T07:48:38.671Z,14.27
2023-01-09T07:51:43.249Z,14.10
2023-01-09T07:54:45.476Z,14.73
2023-01-09T07:57:51.217Z,15.70
2023-01-09T08:00:53.564Z,14.95
2023-01-09T08:03:55.740Z,13.85
2023-01-09T08:06:58.149Z,13.93
2023-01-09T08:10:00.311Z,16.05
2023-01-09T08:13:02.633Z,15.05
2023-01-09T08:16:05.146Z,13.23
2023-01-09T08:19:07.713Z,12.77
2023-01-09T08:22:10.347Z,13.93
2023-01-09T08:25:13.549Z,13.82
2023-01-09T08:28:17.107Z,13.25
2023-01-09T08:31:19.472Z,12.63
2023-01-09T08:34:22.947Z,12.60
2023-01-09T08:37:25.316Z,12.63
2023-01-09T08:41:28.356Z,13.20
2023-01-09T08:44:49.142Z,13.50
2023-01-09T08:47:52.287Z,12.55
2023-01-09T08:50:54.566Z,12.17
2023-01-09T08:53:57.517Z,11.38
2023-01-09T08:56:59.739Z,11.07
2023-01-09T09:00:02.409Z,11.50
2023-01-09T09:03:05.225Z,12.20
2023-01-09T09:06:07.609Z,13.47
2023-01-09T09:09:11.916Z,14.13
2023-01-09T09:12:14.092Z,15.10
2023-01-09T09:15:24.271Z,14.15
2023-01-09T09:18:26.640Z,12.32
2023-01-09T09:21:29.483Z,14.07
2023-01-09T09:24:31.766Z,14.20
2023-01-09T09:27:34.077Z,14.80
2023-01-09T09:30:37.970Z,14.02
2023-01-09T09:33:40.196Z,13.23
2023-01-09T09:36:42.764Z,12.07
2023-01-09T09:39:44.981Z,12.98
2023-01-09T09:43:06.178Z,10.07
2023-01-09T09:46:17.640Z,9.50
2023-01-09T09:49:32.049Z,9.15
2023-01-09T09:52:45.769Z,8.90
2023-01-09T09:55:49.937Z,9.48
2023-01-09T09:58:56.671Z,10.27
2023-01-09T10:02:04.590Z,9.30
2023-01-09T10:05:11.779Z,10.32
2023-01-09T10:08:20.319Z,11.57
2023-01-09T10:11:27.024Z,9.50
2023-01-09T10:14:29.949Z,9.30
2023-01-09T10:17:40.095Z,9.45
2023-01-09T10:20:50.803Z,9.73
2023-01-09T10:24:05.248Z,10.17
2023-01-09T10:27:30.842Z,11.45
2023-01-09T10:30:50.682Z,11.10
2023-01-09T10:33:55.966Z,13.20
2023-01-09T10:37:01.524Z,10.98
2023-01-09T10:40:03.837Z,10.57
2023-01-09T10:43:24.951Z,10.25
2023-01-09T10:46:37.342Z,10.80
2023-01-09T10:50:12.412Z,11.63
2023-01-09T10:53:19.834Z,9.60
2023-01-09T10:56:30.732Z,8.83
2023-01-09T10:59:33.151Z,8.70
2023-01-09T11:02:36.190Z,8.85
2023-01-09T11:05:38.415Z,8.70
2023-01-09T11:08:42.795Z,9.18
2023-01-09T11:11:45.667Z,9.30
2023-01-09T11:14:47.845Z,8.65
2023-01-09T11:17:51.135Z,8.85
2023-01-09T11:20:53.769Z,8.43
2023-01-09T11:23:56.838Z,8.30
2023-01-09T11:27:14.532Z,8.80
2023-01-09T11:30:27.847Z,8.13
2023-01-09T11:33:31.784Z,9.20
2023-01-09T11:36:34.177Z,8.52
2023-01-09T11:39:41.511Z,7.97
2023-01-09T11:43:00.580Z,8.93
2023-01-09T11:46:04.400Z,8.20
2023-01-09T11:49:22.574Z,9.30
2023-01-09T11:52:26.608Z,8.75
2023-01-09T11:55:34.847Z,8.95
2023-01-09T11:58:44.466Z,8.23
2023-01-09T12:02:10.128Z,8.30
2023-01-09T12:05:32.999Z,7.40
2023-01-09T12:08:36.740Z,8.20
2023-01-09T12:11:57.053Z,9.02
2023-01-09T12:15:17.781Z,8.80
2023-01-09T12:18:40.828Z,9.93
2023-01-09T12:21:58.166Z,9.70
2023-01-09T12:25:19.273Z,8.95
2023-01-09T12:28:31.182Z,13.80
2023-01-09T12:31:51.844Z,12.30
2023-01-09T12:34:57.383Z,10.48
2023-01-09T12:38:02.695Z,10.20
2023-01-09T12:41:10.900Z,10.00
2023-01-09T12:44:35.856Z,11.02
2023-01-09T12:47:45.433Z,9.60
2023-01-09T12:50:48.350Z,9.52
2023-01-09T12:53:58.871Z,9.75
2023-01-09T12:57:02.798Z,10.48
2023-01-09T13:00:08.361Z,9.32
2023-01-09T13:03:16.404Z,10.07
2023-01-09T13:06:27.241Z,9.73
2023-01-09T13:09:38.507Z,10.48
2023-01-09T13:12:45.382Z,9.75
2023-01-09T13:15:49.721Z,10.27
2023-01-09T13:19:00.963Z,9.60
2023-01-09T13:22:03.989Z,11.35
2023-01-09T13:25:15.728Z,13.55
2023-01-09T13:28:18.059Z,13.18
2023-01-09T13:31:28.136Z,12.52
2023-01-09T13:34:31.644Z,11.90
2023-01-09T13:37:35.530Z,12.10
2023-01-09T13:40:38.205Z,12.02
2023-01-09T13:44:15.869Z,11.93
2023-01-09T13:47:23.747Z,12.27
2023-01-09T13:50:27.212Z,12.60
2023-01-09T13:53:32.301Z,12.93
2023-01-09T13:56:55.073Z,14.77
2023-01-09T14:00:20.208Z,14.50
2023-01-09T14:03:33.526Z,14.57
2023-01-09T14:06:36.040Z,14.73
2023-01-09T14:09:46.014Z,15.43
2023-01-09T14:12:48.799Z,16.27
2023-01-09T14:15:51.738Z,16.02
2023-01-09T14:18:57.565Z,14.52
2023-01-09T14:22:00.316Z,14.90
2023-01-09T14:25:05.961Z,14.40
2023-01-09T14:28:19.036Z,14.45
2023-01-09T14:31:31.514Z,16.27
2023-01-09T14:34:37.449Z,18.23
2023-01-09T14:37:41.092Z,18.80
2023-01-09T14:40:47.358Z,18.50
2023-01-09T14:43:57.154Z,17.98
2023-01-09T14:47:06.890Z,17.45
2023-01-09T14:50:27.977Z,17.63
2023-01-09T14:53:31.912Z,16.37
2023-01-09T14:56:36.580Z,16.60
2023-01-09T14:59:39.038Z,17.15
2023-01-09T15:02:43.136Z,16.30
2023-01-09T15:05:46.440Z,18.07
2023-01-09T15:08:54.379Z,21.17
2023-01-09T15:11:58.753Z,21.20
2023-01-09T15:15:02.527Z,21.48
2023-01-09T15:18:06.796Z,22.83
2023-01-09T15:21:15.297Z,25.23
2023-01-09T15:24:22.266Z,23.07
2023-01-09T15:27:26.435Z,21.63
2023-01-09T15:30:36.115Z,23.35
2023-01-09T15:33:42.258Z,23.70
2023-01-09T15:36:44.795Z,22.93
2023-01-09T15:39:48.050Z,27.83
2023-01-09T15:43:01.165Z,20.77
2023-01-09T15:46:03.707Z,18.58
2023-01-09T15:49:06.267Z,16.30
2023-01-09T15:52:12.018Z,15.37
2023-01-09T15:55:24.455Z,14.90
2023-01-09T15:58:29.723Z,15.52
2023-01-09T16:01:33.625Z,15.48
2023-01-09T16:04:40.333Z,19.58
2023-01-09T16:07:46.154Z,21.63
2023-01-09T16:10:56.032Z,20.23
2023-01-09T16:14:18.426Z,23.25
2023-01-09T16:17:23.856Z,23.77
2023-01-09T16:20:26.927Z,23.58
2023-01-09T16:23:30.995Z,23.70
2023-01-09T16:26:33.370Z,26.17
2023-01-09T16:29:37.108Z,24.05
2023-01-09T16:32:47.378Z,21.30
2023-01-09T16:35:50.075Z,21.27
2023-01-09T16:38:52.910Z,20.00
2023-01-09T16:42:15.332Z,21.17
2023-01-09T16:45:17.420Z,23.02
2023-01-09T16:48:22.364Z,24.48
2023-01-09T16:51:25.798Z,23.60
2023-01-09T16:54:27.924Z,24.52
2023-01-09T16:57:30.355Z,28.80
2023-01-09T17:00:33.535Z,28.05
2023-01-09T17:03:35.932Z,25.23
2023-01-09T17:06:39.128Z,25.83
2023-01-09T17:09:41.316Z,25.60
2023-01-09T17:12:43.408Z,25.90
2023-01-09T17:15:45.880Z,23.52
2023-01-09T17:18:48.418Z,22.83
2023-01-09T17:21:50.615Z,22.57
2023-01-09T17:25:11.223Z,24.70
2023-01-09T17:28:32.632Z,19.30
2023-01-09T17:31:36.879Z,20.98
2023-01-09T17:34:44.291Z,19.27
2023-01-09T17:37:46.572Z,20.42
2023-01-09T17:40:49.581Z,22.83
2023-01-09T17:43:52.202Z,20.10
2023-01-09T17:46:54.297Z,21.70
2023-01-09T17:49:56.503Z,21.70
2023-01-09T17:52:58.684Z,22.25
2023-01-09T17:56:01.666Z,21.15
2023-01-09T17:59:04.790Z,19.88
2023-01-09T18:02:11.175Z,18.93
2023-01-09T18:05:13.447Z,18.10
2023-01-09T18:08:15.548Z,18.55
2023-01-09T18:11:19.575Z,17.63
2023-01-09T18:14:21.921Z,17.58
2023-01-09T18:17:24.215Z,18.80
2023-01-09T18:20:26.387Z,19.05
2023-01-09T18:23:28.839Z,19.20
2023-01-09T18:26:30.928Z,19.85
2023-01-09T18:29:33.289Z,17.43
2023-01-09T18:32:35.439Z,19.60
2023-01-09T18:35:37.798Z,18.02
2023-01-09T18:38:40.278Z,15.05
2023-01-09T18:41:43.151Z,18.80
2023-01-09T18:44:45.317Z,18.70
2023-01-09T18:47:47.544Z,20.90
2023-01-09T18:50:49.832Z,18.65
2023-01-09T18:53:52.387Z,20.05
2023-01-09T18:56:54.463Z,17.67
2023-01-09T18:59:56.581Z,19.63
2023-01-09T19:02:58.771Z,20.55
2023-01-09T19:06:01.587Z,18.30
2023-01-09T19:09:04.217Z,21.17
2023-01-09T19:12:06.811Z,17.10
2023-01-09T19:15:11.551Z,13.67
2023-01-09T19:18:16.659Z,15.13
2023-01-09T19:21:20.851Z,17.67
2023-01-09T19:24:23.698Z,19.05
2023-01-09T19:27:28.369Z,17.27
2023-01-09T19:30:30.728Z,24.00
2023-01-09T19:33:32.877Z,26.00
2023-01-09T19:36:35.544Z,20.35
2023-01-09T19:39:37.790Z,19.80
2023-01-09T19:42:40.155Z,17.98
2023-01-09T19:45:42.691Z,17.55
2023-01-09T19:48:45.081Z,18.10
2023-01-09T19:51:47.209Z,20.48
2023-01-09T19:54:49.382Z,22.00
2023-01-09T19:57:51.545Z,25.25
2023-01-09T20:00:53.822Z,17.65
2023-01-09T20:03:56.874Z,18.75
2023-01-09T20:06:59.469Z,18.60
2023-01-09T20:10:01.905Z,18.30
2023-01-09T20:13:04.520Z,18.67
2023-01-09T20:16:07.293Z,20.00
2023-01-09T20:19:10.973Z,22.40
2023-01-09T20:22:13.688Z,20.97
2023-01-09T20:25:16.169Z,19.08
2023-01-09T20:28:18.253Z,19.77
2023-01-09T20:31:21.079Z,18.98
2023-01-09T20:34:23.480Z,19.80
2023-01-09T20:37:25.990Z,16.93
2023-01-09T20:40:28.645Z,14.80
2023-01-09T20:43:30.806Z,13.35
2023-01-09T20:46:35.011Z,13.52
2023-01-09T20:49:37.420Z,12.20
2023-01-09T20:52:39.641Z,13.07
2023-01-09T20:55:42.057Z,13.38
2023-01-09T20:58:44.335Z,16.80
2023-01-09T21:01:46.700Z,11.70
2023-01-09T21:04:49.255Z,12.13
2023-01-09T21:07:52.240Z,13.80
2023-01-09T21:10:57.655Z,13.18
2023-01-09T21:14:00.027Z,15.00
2023-01-09T21:17:02.264Z,11.38
2023-01-09T21:20:05.530Z,9.07
2023-01-09T21:23:10.921Z,10.43
2023-01-09T21:26:13.886Z,14.03
2023-01-09T21:29:16.369Z,13.17
2023-01-09T21:32:18.508Z,9.70
2023-01-09T21:35:20.672Z,6.65
2023-01-09T21:38:23.672Z,11.97
2023-01-09T21:41:44.401Z,9.70
2023-01-09T21:45:05.230Z,7.45
2023-01-09T21:48:07.509Z,9.52
2023-01-09T21:51:09.651Z,7.68
2023-01-09T21:54:12.055Z,8.30
2023-01-09T21:57:14.270Z,8.25
2023-01-09T22:00:16.596Z,9.13
2023-01-09T22:03:19.159Z,8.50
2023-01-09T22:06:21.553Z,7.00
2023-01-09T22:09:23.783Z,10.70
2023-01-09T22:12:25.966Z,11.07
2023-01-09T22:15:28.120Z,9.45
2023-01-09T22:18:30.330Z,10.83
2023-01-09T22:21:32.484Z,11.77
2023-01-09T22:24:35.037Z,10.13
2023-01-09T22:27:37.761Z,5.95
2023-01-09T22:30:40.840Z,7.27
2023-01-09T22:33:43.057Z,7.05
2023-01-09T22:36:45.987Z,8.30
2023-01-09T22:39:48.159Z,11.52
2023-01-09T22:42:53.391Z,9.90
2023-01-09T22:46:00.002Z,10.88
2023-01-09T22:49:02.860Z,11.57
2023-01-09T22:52:05.174Z,12.25
2023-01-09T22:55:08.795Z,11.80
2023-01-09T22:58:10.911Z,10.43
2023-01-09T23:01:13.305Z,12.15
2023-01-09T23:04:16.625Z,13.23
2023-01-09T23:07:18.800Z,11.18
2023-01-09T23:10:20.942Z,12.20
2023-01-09T23:13:23.222Z,10.50
2023-01-09T23:16:25.893Z,9.75
2023-01-09T23:19:29.466Z,7.45
2023-01-09T23:22:31.587Z,8.90
2023-01-09T23:25:33.760Z,9.10
2023-01-09T23:28:35.942Z,8.98
2023-01-09T23:31:38.075Z,11.88
2023-01-09T23:34:41.615Z,12.23
2023-01-09T23:37:44.037Z,12.05
2023-01-09T23:40:46.292Z,8.48
2023-01-09T23:43:48.542Z,9.18
2023-01-09T23:46:50.837Z,10.63
2023-01-09T23:49:53.073Z,12.07
2023-01-09T23:52:55.189Z,12.18
2023-01-09T23:55:57.318Z,12.20
2023-01-09T23:59:00.497Z,12.40
